Terminal Aerodrome Forecast
Issued by NWS

Home | Current Version | Previous Version | Text Only | Print | Product List | Glossary On
Versions: 1 2 3 4 5 6 7 8 9 10 11 12 13 14 15
000
FTUS43 KICT 301700
TAFCNU
TAF
KCNU 301730Z 3018/0118 18014G20KT P6SM SCT050
     FM010000 15009KT P6SM FEW060
     FM010800 16011KT P6SM VCSH BKN060
     FM011500 17015G22KT P6SM VCSH BKN060=

USA.gov is the U.S. government's official web portal to all federal, state and local government web resources and services.